createdAt,value
2023-03-26T00:02:22.087Z,96553.44
2023-03-26T00:04:48.374Z,96554.50
2023-03-26T00:07:14.640Z,96554.16
2023-03-26T00:09:40.911Z,96556.59
2023-03-26T00:12:07.458Z,96551.22
2023-03-26T00:14:33.763Z,96568.13
2023-03-26T00:17:00.058Z,96557.09
2023-03-26T00:19:26.344Z,96556.03
2023-03-26T00:21:52.629Z,96551.50
2023-03-26T00:24:18.885Z,96546.41
2023-03-26T00:26:45.158Z,96539.44
2023-03-26T00:29:11.460Z,96543.97
2023-03-26T00:31:37.714Z,96546.41
2023-03-26T00:34:04.025Z,96546.66
2023-03-26T00:36:30.336Z,96572.09
2023-03-26T00:38:56.611Z,96567.31
2023-03-26T00:41:22.916Z,96558.47
2023-03-26T00:43:49.298Z,96551.22
2023-03-26T00:46:15.610Z,96549.06
2023-03-26T00:48:45.490Z,96553.38
2023-03-26T00:51:12.197Z,96549.63
2023-03-26T00:53:38.446Z,96542.09
2023-03-26T00:56:04.703Z,96532.19
2023-03-26T00:58:31.017Z,96538.38
2023-03-26T01:00:57.284Z,96538.38
2023-03-26T01:03:27.514Z,96530.84
2023-03-26T01:05:54.707Z,96521.25
2023-03-26T01:08:21.097Z,96511.84
2023-03-26T01:10:47.349Z,96522.81
2023-03-26T01:13:13.634Z,96511.56
2023-03-26T01:15:39.915Z,96498.44
2023-03-26T01:18:06.233Z,96503.53
2023-03-26T01:20:32.501Z,96484.25
2023-03-26T01:22:58.763Z,96470.09
2023-03-26T01:25:25.057Z,96459.63
2023-03-26T01:27:51.324Z,96453.75
2023-03-26T01:30:17.610Z,96464.44
2023-03-26T01:32:44.146Z,96448.91
2023-03-26T01:35:10.627Z,96452.66
2023-03-26T01:37:36.903Z,96458.81
2023-03-26T01:40:03.177Z,96465.78
2023-03-26T01:42:29.440Z,96467.13
2023-03-26T01:44:55.712Z,96458.28
2023-03-26T01:47:22.013Z,96455.31
2023-03-26T01:49:48.272Z,96448.34
2023-03-26T01:52:14.546Z,96432.03
2023-03-26T01:54:40.813Z,96420.00
2023-03-26T01:57:07.139Z,96407.69
2023-03-26T01:59:33.464Z,96403.94
2023-03-26T02:01:59.786Z,96414.66
2023-03-26T02:04:26.162Z,96404.50
2023-03-26T02:06:52.411Z,96409.59
2023-03-26T02:09:18.690Z,96403.16
2023-03-26T02:11:44.961Z,96402.63
2023-03-26T02:14:11.238Z,96394.59
2023-03-26T02:16:37.550Z,96395.16
2023-03-26T02:19:03.839Z,96390.09
2023-03-26T02:21:30.115Z,96389.22
2023-03-26T02:23:56.399Z,96384.75
2023-03-26T02:26:22.658Z,96371.88
2023-03-26T02:28:48.909Z,96372.13
2023-03-26T02:31:15.213Z,96374.84
2023-03-26T02:33:41.522Z,96367.63
2023-03-26T02:36:07.920Z,96354.19
2023-03-26T02:38:34.282Z,96356.59
2023-03-26T02:41:00.537Z,96348.06
2023-03-26T02:43:26.809Z,96347.28
2023-03-26T02:45:53.356Z,96342.19
2023-03-26T02:48:19.949Z,96342.19
2023-03-26T02:50:46.229Z,96345.09
2023-03-26T02:53:12.489Z,96338.13
2023-03-26T02:55:38.749Z,96344.00
2023-03-26T02:58:05.035Z,96331.94
2023-03-26T03:00:31.305Z,96321.78
2023-03-26T03:02:57.622Z,96317.50
2023-03-26T03:05:23.903Z,96304.91
2023-03-26T03:07:50.162Z,96305.66
2023-03-26T03:10:16.435Z,96306.22
2023-03-26T03:12:42.708Z,96298.94
2023-03-26T03:15:08.972Z,96303.22
2023-03-26T03:17:35.274Z,96287.94
2023-03-26T03:20:01.557Z,96295.66
2023-03-26T03:22:27.833Z,96275.59
2023-03-26T03:24:54.083Z,96269.69
2023-03-26T03:27:20.376Z,96274.25
2023-03-26T03:29:46.623Z,96275.31
2023-03-26T03:32:12.899Z,96258.69
2023-03-26T03:34:39.160Z,96267.53
2023-03-26T03:37:05.436Z,96265.41
2023-03-26T03:39:31.685Z,96254.75
2023-03-26T03:41:57.957Z,96254.78
2023-03-26T03:44:24.217Z,96256.34
2023-03-26T03:46:50.481Z,96250.22
2023-03-26T03:49:16.761Z,96234.97
2023-03-26T03:51:43.004Z,96233.59
2023-03-26T03:54:09.254Z,96243.22
2023-03-26T03:56:35.549Z,96238.91
2023-03-26T03:59:01.809Z,96229.81
2023-03-26T04:01:28.071Z,96220.22
2023-03-26T04:03:54.410Z,96226.38
2023-03-26T04:06:20.734Z,96229.84
2023-03-26T04:08:47.030Z,96221.28
2023-03-26T04:11:13.293Z,96218.09
2023-03-26T04:13:39.582Z,96203.63
2023-03-26T04:16:05.865Z,96204.22
2023-03-26T04:18:32.147Z,96214.09
2023-03-26T04:20:58.422Z,96210.66
2023-03-26T04:23:24.684Z,96197.25
2023-03-26T04:25:50.937Z,96198.31
2023-03-26T04:28:17.185Z,96195.13
2023-03-26T04:30:43.462Z,96199.63
2023-03-26T04:33:09.732Z,96205.78
2023-03-26T04:35:36.009Z,96197.44
2023-03-26T04:38:02.276Z,96194.00
2023-03-26T04:40:28.575Z,96191.34
2023-03-26T04:42:54.860Z,96192.13
2023-03-26T04:45:21.104Z,96187.03
2023-03-26T04:47:47.439Z,96171.25
2023-03-26T04:50:13.787Z,96192.34
2023-03-26T04:52:40.059Z,96206.75
2023-03-26T04:55:06.430Z,96213.97
2023-03-26T04:57:32.700Z,96195.56
2023-03-26T04:59:58.943Z,96194.72
2023-03-26T05:02:25.235Z,96185.09
2023-03-26T05:04:51.503Z,96190.19
2023-03-26T05:07:17.757Z,96203.63
2023-03-26T05:09:44.039Z,96195.56
2023-03-26T05:12:10.290Z,96212.09
2023-03-26T05:14:36.541Z,96199.22
2023-03-26T05:17:02.822Z,96211.25
2023-03-26T05:19:29.102Z,96202.16
2023-03-26T05:21:55.362Z,96209.09
2023-03-26T05:24:21.756Z,96174.09
2023-03-26T05:26:48.017Z,96148.41
2023-03-26T05:29:14.261Z,96135.34
2023-03-26T05:31:40.526Z,96142.84
2023-03-26T05:34:06.784Z,96129.25
2023-03-26T05:36:33.079Z,96137.25
2023-03-26T05:38:59.331Z,96134.03
2023-03-26T05:41:25.633Z,96122.03
2023-03-26T05:43:51.904Z,96112.66
2023-03-26T05:46:18.257Z,96115.03
2023-03-26T05:48:44.571Z,96120.44
2023-03-26T05:51:10.868Z,96122.84
2023-03-26T05:53:37.144Z,96134.34
2023-03-26T05:56:03.397Z,96130.34
2023-03-26T05:58:29.633Z,96140.78
2023-03-26T06:00:56.049Z,96152.03
2023-03-26T06:03:22.653Z,96156.00
2023-03-26T06:05:49.296Z,96146.13
2023-03-26T06:08:15.543Z,96149.06
2023-03-26T06:10:41.796Z,96158.09
2023-03-26T06:13:08.068Z,96170.94
2023-03-26T06:15:34.355Z,96180.00
2023-03-26T06:18:00.685Z,96171.47
2023-03-26T06:20:27.029Z,96176.53
2023-03-26T06:22:53.369Z,96166.41
2023-03-26T06:25:19.641Z,96119.59
2023-03-26T06:27:45.885Z,96118.03
2023-03-26T06:30:12.134Z,96151.72
2023-03-26T06:32:38.411Z,96153.28
2023-03-26T06:35:04.698Z,96148.50
2023-03-26T06:37:30.981Z,96142.63
2023-03-26T06:39:57.278Z,96135.69
2023-03-26T06:43:06.830Z,96166.72
2023-03-26T06:45:09.760Z,96155.22
2023-03-26T06:47:36.051Z,96152.03
2023-03-26T06:50:02.350Z,96138.94
2023-03-26T06:52:28.648Z,96138.41
2023-03-26T06:54:55.004Z,96142.16
2023-03-26T06:57:21.301Z,96135.19
2023-03-26T06:59:47.599Z,96145.38
2023-03-26T07:02:13.860Z,96143.50
2023-03-26T07:04:40.114Z,96130.13
2023-03-26T07:07:06.409Z,96135.75
2023-03-26T07:09:32.697Z,96139.22
2023-03-26T07:11:59.018Z,96141.09
2023-03-26T07:14:25.316Z,96143.22
2023-03-26T07:16:51.648Z,96130.66
2023-03-26T07:19:17.950Z,96141.34
2023-03-26T07:21:44.219Z,96138.94
2023-03-26T07:24:10.534Z,96112.72
2023-03-26T07:26:36.853Z,96107.38
2023-03-26T07:29:04.877Z,96112.19
2023-03-26T07:31:31.653Z,96106.56
2023-03-26T07:33:57.947Z,96112.16
2023-03-26T07:36:24.218Z,96094.22
2023-03-26T07:38:50.493Z,96114.56
2023-03-26T07:41:16.770Z,96103.31
2023-03-26T07:43:43.017Z,96111.00
2023-03-26T07:46:09.342Z,96117.97
2023-03-26T07:48:35.677Z,96130.25
2023-03-26T07:51:01.949Z,96138.28
2023-03-26T07:53:28.211Z,96159.66
2023-03-26T07:55:54.489Z,96161.81
2023-03-26T07:58:20.777Z,96166.59
2023-03-26T08:00:47.101Z,96139.88
2023-03-26T08:03:13.565Z,96087.53
2023-03-26T08:05:39.937Z,96085.66
2023-03-26T08:08:06.204Z,96085.41
2023-03-26T08:10:32.474Z,96085.94
2023-03-26T08:12:58.715Z,96119.09
2023-03-26T08:15:25.018Z,96160.22
2023-03-26T08:17:51.301Z,96153.16
2023-03-26T08:20:17.610Z,96128.66
2023-03-26T08:22:43.853Z,96100.34
2023-03-26T08:25:10.108Z,96111.59
2023-03-26T08:27:36.397Z,96126.56
2023-03-26T08:30:02.686Z,96120.19
2023-03-26T08:32:29.148Z,96123.91
2023-03-26T08:34:55.470Z,96135.09
2023-03-26T08:37:21.773Z,96117.47
2023-03-26T08:39:48.020Z,96114.00
2023-03-26T08:42:14.277Z,96116.97
2023-03-26T08:44:40.659Z,96117.50
2023-03-26T08:47:06.987Z,96120.97
2023-03-26T08:49:33.257Z,96123.38
2023-03-26T08:51:59.535Z,96118.28
2023-03-26T08:54:25.798Z,96115.06
2023-03-26T08:56:52.082Z,96113.50
2023-03-26T08:59:18.358Z,96113.22
2023-03-26T09:01:44.682Z,96127.13
2023-03-26T09:04:11.030Z,96138.91
2023-03-26T09:06:37.422Z,96133.00
2023-03-26T09:09:03.698Z,96139.19
2023-03-26T09:11:29.960Z,96135.19
2023-03-26T09:13:56.238Z,96131.44
2023-03-26T09:16:22.554Z,96117.53
2023-03-26T09:18:48.886Z,96123.44
2023-03-26T09:21:15.139Z,96124.50
2023-03-26T09:23:41.429Z,96117.81
2023-03-26T09:26:07.673Z,96127.13
2023-03-26T09:28:33.940Z,96119.34
2023-03-26T09:31:00.220Z,96138.03
2023-03-26T09:33:26.486Z,96116.09
2023-03-26T09:35:53.099Z,96114.25
2023-03-26T09:38:19.479Z,96116.06
2023-03-26T09:40:45.748Z,96105.16
2023-03-26T09:43:12.017Z,96092.56
2023-03-26T09:45:38.344Z,96098.19
2023-03-26T09:48:04.656Z,96099.53
2023-03-26T09:50:31.019Z,96101.13
2023-03-26T09:52:57.390Z,96094.47
2023-03-26T09:55:23.702Z,96102.75
2023-03-26T09:57:50.057Z,96104.34
2023-03-26T10:00:16.407Z,96095.28
2023-03-26T10:02:45.994Z,96096.91
2023-03-26T10:05:13.790Z,96095.56
2023-03-26T10:07:40.048Z,96103.88
2023-03-26T10:10:06.344Z,96097.19
2023-03-26T10:12:32.641Z,96099.34
2023-03-26T10:14:58.997Z,96097.47
2023-03-26T10:17:25.280Z,96093.47
2023-03-26T10:19:51.548Z,96090.25
2023-03-26T10:22:17.850Z,96097.44
2023-03-26T10:24:44.123Z,96091.56
2023-03-26T10:27:10.973Z,96104.94
2023-03-26T10:29:37.385Z,96116.72
2023-03-26T10:32:03.680Z,96111.91
2023-03-26T10:34:29.961Z,96118.31
2023-03-26T10:36:56.232Z,96124.72
2023-03-26T10:39:37.184Z,96121.22
2023-03-26T10:42:05.679Z,96123.38
2023-03-26T10:44:31.988Z,96125.53
2023-03-26T10:46:58.306Z,96122.34
2023-03-26T10:49:24.627Z,96121.81
2023-03-26T10:51:51.066Z,96114.88
2023-03-26T10:54:17.361Z,96132.53
2023-03-26T10:56:43.672Z,96126.63
2023-03-26T10:59:09.983Z,96112.72
2023-03-26T11:01:36.330Z,96112.72
2023-03-26T11:04:02.624Z,96115.09
2023-03-26T11:06:28.935Z,96110.03
2023-03-26T11:08:55.407Z,96123.91
2023-03-26T11:11:21.726Z,96112.91
2023-03-26T11:13:47.977Z,96103.84
2023-03-26T11:16:14.314Z,96113.97
2023-03-26T11:18:40.658Z,96112.66
2023-03-26T11:21:19.341Z,96105.75
2023-03-26T11:23:46.708Z,96104.91
2023-03-26T11:26:12.991Z,96121.22
2023-03-26T11:28:39.235Z,96108.91
2023-03-26T11:31:05.585Z,96150.84
2023-03-26T11:34:37.051Z,96133.66
2023-03-26T11:36:18.283Z,96105.59
2023-03-26T11:38:44.694Z,96113.88
2023-03-26T11:41:10.962Z,96109.88
2023-03-26T11:43:37.278Z,96121.34
2023-03-26T11:46:03.659Z,96080.00
2023-03-26T11:48:29.958Z,96074.69
2023-03-26T11:50:56.418Z,96082.69
2023-03-26T11:53:22.852Z,96086.72
2023-03-26T11:55:49.124Z,96072.00
2023-03-26T11:58:15.402Z,96069.06
2023-03-26T12:00:41.693Z,96027.38
2023-03-26T12:03:08.045Z,96023.06
2023-03-26T12:05:34.396Z,96018.53
2023-03-26T12:08:00.665Z,95991.00
2023-03-26T12:10:26.939Z,95983.00
2023-03-26T12:12:53.206Z,95976.31
2023-03-26T12:15:19.464Z,95991.56
2023-03-26T12:17:45.733Z,96001.44
2023-03-26T12:20:12.006Z,96012.41
2023-03-26T12:22:38.273Z,96014.28
2023-03-26T12:25:04.540Z,96006.75
2023-03-26T12:27:30.819Z,96001.06
2023-03-26T12:29:57.084Z,95985.66
2023-03-26T12:32:29.614Z,95956.53
2023-03-26T12:35:01.930Z,95950.94
2023-03-26T12:37:28.208Z,95950.69
2023-03-26T12:40:06.896Z,95957.63
2023-03-26T12:44:47.787Z,95986.16
2023-03-26T12:45:23.445Z,96006.44
2023-03-26T12:48:00.564Z,96038.25
2023-03-26T12:50:34.127Z,96041.31
2023-03-26T12:53:02.059Z,96063.63
2023-03-26T12:55:28.374Z,96065.28
2023-03-26T12:57:54.665Z,96091.19
2023-03-26T13:00:20.964Z,96132.56
2023-03-26T13:02:47.322Z,96163.63
2023-03-26T13:05:13.645Z,96129.75
2023-03-26T13:07:39.955Z,96065.59
2023-03-26T13:10:06.222Z,96052.28
2023-03-26T13:12:32.466Z,96024.56
2023-03-26T13:14:58.785Z,96004.53
2023-03-26T13:17:25.045Z,96006.53
2023-03-26T13:19:51.304Z,96004.78
2023-03-26T13:22:17.552Z,96013.94
2023-03-26T13:24:43.831Z,96026.28
2023-03-26T13:27:10.120Z,96026.91
2023-03-26T13:29:36.404Z,96028.31
2023-03-26T13:32:02.669Z,96013.94
2023-03-26T13:34:28.950Z,96035.22
2023-03-26T13:36:55.249Z,96039.03
2023-03-26T13:39:21.624Z,96042.31
2023-03-26T13:41:47.903Z,96046.63
2023-03-26T13:44:14.154Z,96040.78
2023-03-26T13:46:40.499Z,96031.47
2023-03-26T13:49:06.853Z,96023.22
2023-03-26T13:51:33.096Z,96034.72
2023-03-26T13:53:59.397Z,96028.06
2023-03-26T13:56:25.684Z,96023.78
2023-03-26T13:58:51.935Z,96029.16
2023-03-26T14:01:18.450Z,96041.47
2023-03-26T14:03:44.752Z,96043.38
2023-03-26T14:06:11.049Z,96037.78
2023-03-26T14:08:37.310Z,96035.91
2023-03-26T14:11:03.573Z,96031.09
2023-03-26T14:13:29.830Z,96049.81
2023-03-26T14:15:56.230Z,96055.97
2023-03-26T14:18:22.573Z,96054.91
2023-03-26T14:20:48.866Z,96062.13
2023-03-26T14:23:15.127Z,96063.72
2023-03-26T14:25:41.385Z,96062.91
2023-03-26T14:28:07.715Z,96060.50
2023-03-26T14:30:33.960Z,96043.69
2023-03-26T14:33:00.289Z,96051.97
2023-03-26T14:35:26.603Z,96062.91
2023-03-26T14:37:52.921Z,96062.06
2023-03-26T14:40:19.248Z,96066.91
2023-03-26T14:42:45.502Z,96066.63
2023-03-26T14:45:11.767Z,96068.78
2023-03-26T14:47:38.184Z,96071.47
2023-03-26T14:50:04.557Z,96068.50
2023-03-26T14:52:30.876Z,96055.16
2023-03-26T14:54:57.200Z,96059.19
2023-03-26T14:57:23.488Z,96060.00
2023-03-26T14:59:49.771Z,96052.50
2023-03-26T15:02:16.073Z,96055.72
2023-03-26T15:04:42.456Z,96058.13
2023-03-26T15:07:08.733Z,96059.47
2023-03-26T15:09:35.008Z,96061.06
2023-03-26T15:12:12.110Z,96052.00
2023-03-26T15:14:39.585Z,96053.34
2023-03-26T15:17:05.889Z,96047.47
2023-03-26T15:19:32.148Z,96044.78
2023-03-26T15:21:58.451Z,96045.28
2023-03-26T15:24:24.753Z,96047.44
2023-03-26T15:26:51.097Z,96051.97
2023-03-26T15:29:17.358Z,96049.03
2023-03-26T15:31:43.664Z,96042.34
2023-03-26T15:34:09.966Z,96049.56
2023-03-26T15:36:36.288Z,96045.53
2023-03-26T15:39:02.545Z,96041.00
2023-03-26T15:41:28.815Z,96030.28
2023-03-26T15:44:22.850Z,96020.59
2023-03-26T15:46:41.732Z,96025.88
2023-03-26T15:49:08.266Z,96025.28
2023-03-26T15:51:46.910Z,96019.53
2023-03-26T15:54:13.996Z,96016.19
2023-03-26T15:56:40.335Z,96014.25
2023-03-26T15:59:06.806Z,96010.47
2023-03-26T16:01:33.390Z,96009.31
2023-03-26T16:03:59.810Z,96008.75
2023-03-26T16:06:26.531Z,96007.53
2023-03-26T16:08:54.338Z,96002.94
2023-03-26T16:11:20.907Z,95996.16
2023-03-26T16:13:47.356Z,95984.84
2023-03-26T16:16:14.344Z,95984.47
2023-03-26T16:18:40.903Z,95985.72
2023-03-26T16:21:07.320Z,95984.66
2023-03-26T16:23:34.055Z,95993.53
2023-03-26T16:26:14.421Z,95984.03
2023-03-26T16:28:41.066Z,95980.28
2023-03-26T16:31:10.671Z,95984.38
2023-03-26T16:33:55.807Z,95974.81
2023-03-26T16:36:22.088Z,95975.88
2023-03-26T16:38:48.511Z,95966.91
2023-03-26T16:41:15.103Z,95967.22
2023-03-26T16:43:41.851Z,95963.22
2023-03-26T16:46:08.331Z,95966.09
2023-03-26T16:48:34.863Z,95960.91
2023-03-26T16:51:01.374Z,95951.44
2023-03-26T16:53:28.104Z,95942.56
2023-03-26T16:55:56.164Z,95946.88
2023-03-26T16:58:22.712Z,95942.22
2023-03-26T17:00:51.699Z,95945.50
2023-03-26T17:03:18.420Z,95937.25
2023-03-26T17:05:44.967Z,95945.91
2023-03-26T17:08:11.366Z,95944.56
2023-03-26T17:10:37.838Z,95936.31
2023-03-26T17:13:04.238Z,95938.72
2023-03-26T17:15:30.645Z,95937.91
2023-03-26T17:17:57.174Z,95939.81
2023-03-26T17:20:23.787Z,95929.63
2023-03-26T17:22:50.385Z,95926.16
2023-03-26T17:25:16.880Z,95916.47
2023-03-26T17:27:43.278Z,95934.41
2023-03-26T17:30:09.810Z,95922.63
2023-03-26T17:32:36.358Z,95915.41
2023-03-26T17:35:08.110Z,95926.91
2023-03-26T17:37:34.553Z,95927.69
2023-03-26T17:40:00.855Z,95917.00
2023-03-26T17:42:27.334Z,95918.06
2023-03-26T17:44:53.862Z,95928.25
2023-03-26T17:47:20.247Z,95923.97
2023-03-26T17:49:46.585Z,95922.91
2023-03-26T17:52:12.996Z,95924.28
2023-03-26T17:54:40.960Z,95914.63
2023-03-26T17:57:07.294Z,95914.63
2023-03-26T17:59:33.941Z,95916.78
2023-03-26T18:02:00.508Z,95916.78
2023-03-26T18:04:26.928Z,95914.66
2023-03-26T18:06:53.446Z,95913.56
2023-03-26T18:09:19.908Z,95921.88
2023-03-26T18:11:49.066Z,95914.13
2023-03-26T18:14:15.711Z,95938.78
2023-03-26T18:16:42.445Z,95941.22
2023-03-26T18:19:08.864Z,95966.69
2023-03-26T18:21:37.976Z,95966.97
2023-03-26T18:24:04.441Z,95983.28
2023-03-26T18:26:30.899Z,95970.34
2023-03-26T18:28:57.266Z,95977.53
2023-03-26T18:31:23.582Z,95968.22
2023-03-26T18:33:49.887Z,95977.81
2023-03-26T18:36:16.181Z,95980.47
2023-03-26T18:38:43.049Z,95978.38
2023-03-26T18:41:09.391Z,95983.97
2023-03-26T18:43:44.252Z,95989.00
2023-03-26T18:46:10.958Z,95974.25
2023-03-26T18:48:37.358Z,95973.50
2023-03-26T18:51:05.040Z,95968.97
2023-03-26T18:53:32.436Z,95973.00
2023-03-26T18:55:58.945Z,95962.59
2023-03-26T18:58:25.921Z,95963.66
2023-03-26T19:00:52.667Z,95960.22
2023-03-26T19:03:19.415Z,95954.59
2023-03-26T19:05:46.081Z,95955.16
2023-03-26T19:08:12.644Z,95948.19
2023-03-26T19:10:38.950Z,95946.06
2023-03-26T19:13:05.232Z,95950.09
2023-03-26T19:15:31.517Z,95944.78
2023-03-26T19:17:57.925Z,95944.78
2023-03-26T19:20:24.273Z,95932.72
2023-03-26T19:22:50.627Z,95932.97
2023-03-26T19:25:16.951Z,95925.50
2023-03-26T19:27:43.245Z,95921.75
2023-03-26T19:30:09.540Z,95914.28
2023-03-26T19:32:36.006Z,95917.75
2023-03-26T19:35:02.385Z,95908.66
2023-03-26T19:37:28.728Z,95913.22
2023-03-26T19:39:55.017Z,95912.94
2023-03-26T19:42:21.293Z,95914.81
2023-03-26T19:44:47.932Z,95912.41
2023-03-26T19:47:14.372Z,95917.22
2023-03-26T19:49:40.869Z,95910.53
2023-03-26T19:52:07.339Z,95914.81
2023-03-26T19:54:33.788Z,95919.88
2023-03-26T19:57:00.477Z,95919.34
2023-03-26T19:59:27.071Z,95928.16
2023-03-26T20:01:53.719Z,95927.38
2023-03-26T20:04:20.268Z,95925.22
2023-03-26T20:06:46.748Z,95926.84
2023-03-26T20:09:13.632Z,95930.84
2023-03-26T20:11:40.350Z,95933.50
2023-03-26T20:14:06.990Z,95945.53
2023-03-26T20:16:33.615Z,95930.56
2023-03-26T20:19:00.346Z,95933.78
2023-03-26T20:21:26.783Z,95933.75
2023-03-26T20:23:53.378Z,95943.91
2023-03-26T20:26:22.834Z,95938.81
2023-03-26T20:28:53.232Z,95938.56
2023-03-26T20:31:20.042Z,95936.97
2023-03-26T20:33:46.562Z,95936.41
2023-03-26T20:36:13.009Z,95939.88
2023-03-26T20:38:40.111Z,95944.16
2023-03-26T20:41:06.480Z,95943.91
2023-03-26T20:43:32.777Z,95939.63
2023-03-26T20:45:59.076Z,95945.22
2023-03-26T20:48:25.393Z,95947.38
2023-03-26T20:50:51.667Z,95949.50
2023-03-26T20:53:17.964Z,95941.50
2023-03-26T20:55:44.215Z,95943.88
2023-03-26T20:58:10.508Z,95950.56
2023-03-26T21:00:36.787Z,95965.53
2023-03-26T21:03:04.205Z,95962.84
2023-03-26T21:05:30.536Z,95963.91
2023-03-26T21:07:56.824Z,95955.38
2023-03-26T21:10:23.106Z,95963.91
2023-03-26T21:12:49.366Z,95972.44
2023-03-26T21:15:22.959Z,95988.72
2023-03-26T21:17:49.952Z,95990.59
2023-03-26T21:20:16.221Z,95989.78
2023-03-26T21:22:42.486Z,95987.66
2023-03-26T21:25:08.740Z,96000.72
2023-03-26T21:27:35.000Z,96005.25
2023-03-26T21:30:01.260Z,96010.84
2023-03-26T21:32:27.585Z,96018.84
2023-03-26T21:37:23.293Z,96030.03
2023-03-26T21:39:49.573Z,96027.31
2023-03-26T21:42:15.858Z,96020.41
2023-03-26T21:44:42.137Z,96015.88
2023-03-26T21:47:09.752Z,96016.94
2023-03-26T21:49:36.307Z,96023.34
2023-03-26T21:52:02.568Z,96025.22
2023-03-26T21:54:28.859Z,96028.97
2023-03-26T21:56:55.149Z,96030.53
2023-03-26T21:59:21.431Z,96038.00
2023-03-26T22:01:47.803Z,96042.53
2023-03-26T22:04:14.094Z,96046.25
2023-03-26T22:06:40.381Z,96048.13
2023-03-26T22:09:06.641Z,96055.59
2023-03-26T22:11:32.909Z,96051.31
2023-03-26T22:13:59.188Z,96053.41
2023-03-26T22:16:25.523Z,96067.28
2023-03-26T22:18:51.820Z,96063.81
2023-03-26T22:21:18.086Z,96077.16
2023-03-26T22:23:44.326Z,96073.94
2023-03-26T22:26:10.597Z,96072.09
2023-03-26T22:28:36.903Z,96078.22
2023-03-26T22:31:03.200Z,96085.16
2023-03-26T22:33:29.469Z,96089.69
2023-03-26T22:35:55.742Z,96088.66
2023-03-26T22:38:22.186Z,96094.25
2023-03-26T22:40:48.456Z,96109.72
2023-03-26T22:43:14.747Z,96118.28
2023-03-26T22:45:41.073Z,96116.41
2023-03-26T22:48:07.473Z,96112.16
2023-03-26T22:50:33.765Z,96112.94
2023-03-26T22:53:00.105Z,96117.19
2023-03-26T22:55:28.332Z,96129.72
2023-03-26T22:57:55.470Z,96132.91
2023-03-26T23:00:21.722Z,96143.31
2023-03-26T23:02:48.011Z,96139.34
2023-03-26T23:05:14.321Z,96142.81
2023-03-26T23:07:40.574Z,96151.06
2023-03-26T23:10:06.847Z,96162.00
2023-03-26T23:12:33.111Z,96164.41
2023-03-26T23:14:59.350Z,96162.59
2023-03-26T23:17:25.708Z,96170.59
2023-03-26T23:19:51.997Z,96169.25
2023-03-26T23:22:18.250Z,96172.97
2023-03-26T23:24:44.518Z,96164.16
2023-03-26T23:27:10.808Z,96168.44
2023-03-26T23:29:37.081Z,96170.81
2023-03-26T23:32:03.352Z,96173.22
2023-03-26T23:34:51.851Z,96191.91
2023-03-26T23:37:18.817Z,96201.53
2023-03-26T23:39:45.100Z,96200.72
2023-03-26T23:42:11.350Z,96210.78
2023-03-26T23:44:37.606Z,96207.63
2023-03-26T23:47:03.861Z,96217.19
2023-03-26T23:49:30.148Z,96216.94
2023-03-26T23:51:56.416Z,96227.09
2023-03-26T23:54:22.686Z,96239.88
2023-03-26T23:56:49.034Z,96231.88
2023-03-26T23:59:15.341Z,96240.69
